Time;durP1;ratioP1;P1;durP2;ratioP2;P2;SDS_P1;SDS_P2;PMS_P1;PMS_P2;Temp;Humidity;BMP_temperature;BMP_pressure;BME280_temperature;BME280_humidity;BME280_pressure;Samples;Min_cycle;Max_cycle;Signal;HPM_P1;HPM_P2
2023/08/06 00:00:39;;;;;;;8.20;7.20;;;17.50;99.90;;;;;;5092579;28;20963;-71
2023/08/06 00:03:05;;;;;;;8.00;7.20;;;17.50;99.90;;;;;;5092684;28;20272;-70
2023/08/06 00:05:31;;;;;;;8.10;7.40;;;17.50;99.90;;;;;;5061998;28;20200;-70
2023/08/06 00:07:56;;;;;;;8.43;7.70;;;17.50;99.90;;;;;;5071950;28;20515;-70
2023/08/06 00:10:22;;;;;;;8.33;7.67;;;17.50;99.90;;;;;;5072243;28;20616;-72
2023/08/06 00:12:48;;;;;;;7.67;6.93;;;17.50;99.90;;;;;;5071684;28;20694;-69
2023/08/06 00:15:14;;;;;;;9.70;8.80;;;17.50;99.90;;;;;;5060245;28;20274;-69
2023/08/06 00:17:40;;;;;;;9.53;8.63;;;17.40;99.90;;;;;;5052306;28;20420;-70
2023/08/06 00:20:06;;;;;;;9.60;8.70;;;17.40;99.90;;;;;;5051989;28;20544;-70
2023/08/06 00:22:36;;;;;;;8.37;7.60;;;17.40;99.90;;;;;;5034459;28;20195;-71
2023/08/06 00:25:03;;;;;;;9.20;8.40;;;17.40;99.90;;;;;;5052808;28;20842;-70
2023/08/06 00:27:29;;;;;;;8.40;7.73;;;17.40;99.90;;;;;;5056772;28;20504;-70
2023/08/06 00:29:54;;;;;;;9.10;7.50;;;17.50;99.90;;;;;;5064316;28;20480;-71
2023/08/06 00:32:21;;;;;;;8.40;7.70;;;17.50;99.90;;;;;;5078913;28;20476;-71
2023/08/06 00:34:49;;;;;;;9.13;8.27;;;17.40;99.90;;;;;;5080818;28;20181;-71
2023/08/06 00:37:16;;;;;;;8.33;7.67;;;17.40;99.90;;;;;;5071914;28;20396;-71
2023/08/06 00:39:42;;;;;;;8.67;7.97;;;17.40;99.90;;;;;;5072377;28;20406;-71
2023/08/06 00:42:08;;;;;;;8.37;7.63;;;17.40;99.90;;;;;;5071671;28;20891;-70
2023/08/06 00:44:34;;;;;;;8.10;7.37;;;17.40;99.90;;;;;;5071802;28;20462;-70
2023/08/06 00:47:00;;;;;;;9.30;8.50;;;17.30;99.90;;;;;;5057806;28;20436;-71
2023/08/06 00:49:25;;;;;;;9.10;8.20;;;17.40;99.90;;;;;;5051459;28;20700;-69
2023/08/06 00:51:51;;;;;;;8.37;7.67;;;17.30;99.90;;;;;;5054747;28;20201;-70
2023/08/06 00:54:17;;;;;;;10.73;8.27;;;17.30;99.90;;;;;;5071581;28;20253;-71
2023/08/06 00:56:43;;;;;;;9.10;8.30;;;17.30;99.90;;;;;;5071569;28;20901;-71
2023/08/06 00:59:10;;;;;;;9.90;8.20;;;17.20;99.90;;;;;;5071526;28;20691;-71
2023/08/06 01:01:36;;;;;;;8.10;7.47;;;17.30;99.90;;;;;;5071613;28;20523;-71
2023/08/06 01:04:02;;;;;;;9.80;8.93;;;17.30;99.90;;;;;;5069221;28;20440;-72
2023/08/06 01:06:49;;;;;;;8.80;8.00;;;17.20;99.90;;;;;;5071925;28;20253;-70
2023/08/06 01:09:49;;;;;;;9.60;7.67;;;17.20;99.90;;;;;;5071529;28;20470;-71
2023/08/06 01:12:29;;;;;;;8.83;8.03;;;17.30;99.90;;;;;;5068101;28;20860;-70
2023/08/06 01:15:05;;;;;;;8.20;7.40;;;17.20;99.90;;;;;;5061030;28;20800;-71
2023/08/06 01:17:31;;;;;;;7.30;6.70;;;17.20;99.90;;;;;;5051227;28;20467;-71
2023/08/06 01:19:57;;;;;;;8.60;7.80;;;17.20;99.90;;;;;;5051571;28;20408;-70
2023/08/06 01:22:23;;;;;;;9.20;8.40;;;17.20;99.90;;;;;;5072569;28;20503;-70
2023/08/06 01:24:50;;;;;;;9.50;8.70;;;17.20;99.90;;;;;;5075363;28;20202;-72
2023/08/06 01:27:35;;;;;;;9.33;8.20;;;17.10;99.90;;;;;;5075417;28;20170;-72
2023/08/06 01:30:11;;;;;;;9.07;8.27;;;17.10;99.90;;;;;;5075411;28;20397;-72
2023/08/06 01:32:40;;;;;;;7.67;6.87;;;17.10;99.90;;;;;;5070249;28;20464;-70
2023/08/06 01:35:07;;;;;;;8.20;7.50;;;17.00;99.90;;;;;;5075052;28;20408;-71
2023/08/06 01:37:32;;;;;;;9.60;8.70;;;17.00;99.90;;;;;;5075258;28;20413;-72
2023/08/06 01:39:58;;;;;;;10.03;7.40;;;17.00;99.90;;;;;;5074940;28;20791;-71
2023/08/06 01:42:24;;;;;;;9.10;8.30;;;17.00;99.90;;;;;;5074708;28;20178;-71
2023/08/06 01:44:49;;;;;;;9.20;8.40;;;17.00;99.90;;;;;;5075012;28;20182;-71
2023/08/06 01:47:15;;;;;;;8.33;7.60;;;16.90;99.90;;;;;;5072715;28;20569;-72
2023/08/06 01:49:40;;;;;;;7.90;7.20;;;16.90;99.90;;;;;;5058010;28;20253;-71
2023/08/06 01:52:06;;;;;;;8.53;7.73;;;16.90;99.90;;;;;;5074908;28;20672;-71
2023/08/06 01:54:32;;;;;;;8.87;7.97;;;16.90;99.90;;;;;;5068436;28;20216;-71
2023/08/06 01:56:58;;;;;;;8.33;7.37;;;16.90;99.90;;;;;;5087335;28;20961;-71
2023/08/06 01:59:24;;;;;;;8.00;7.30;;;16.80;99.90;;;;;;5094724;28;20526;-70
2023/08/06 02:01:49;;;;;;;8.90;8.13;;;16.70;99.90;;;;;;5094661;28;20415;-71
2023/08/06 02:04:15;;;;;;;9.00;8.30;;;16.80;99.90;;;;;;5094772;28;20231;-70
2023/08/06 02:06:40;;;;;;;11.00;8.30;;;16.70;99.90;;;;;;5080312;28;20178;-70
2023/08/06 02:09:06;;;;;;;8.00;7.30;;;16.70;99.90;;;;;;5074436;28;20188;-71
2023/08/06 02:11:32;;;;;;;10.80;7.70;;;16.70;99.90;;;;;;5074510;28;20195;-71
2023/08/06 02:13:57;;;;;;;9.23;8.33;;;16.70;99.90;;;;;;5070769;28;20652;-70
2023/08/06 02:16:23;;;;;;;8.53;7.83;;;16.70;99.90;;;;;;5054306;28;20182;-70
2023/08/06 02:18:48;;;;;;;9.37;8.53;;;16.70;99.90;;;;;;5054019;28;20270;-71
2023/08/06 02:21:14;;;;;;;9.80;8.80;;;16.70;99.90;;;;;;5053989;28;20178;-70
2023/08/06 02:23:39;;;;;;;10.07;9.17;;;16.70;99.90;;;;;;5036021;28;20207;-70
2023/08/06 02:26:05;;;;;;;9.77;8.87;;;16.60;99.90;;;;;;5054086;28;20175;-70
2023/08/06 02:28:31;;;;;;;9.33;8.50;;;16.70;99.90;;;;;;5055829;28;20180;-70
2023/08/06 02:30:57;;;;;;;9.60;8.77;;;16.70;99.90;;;;;;5073631;28;20234;-70
2023/08/06 02:33:23;;;;;;;9.70;8.80;;;16.60;99.90;;;;;;5060575;28;20472;-70
2023/08/06 02:35:48;;;;;;;10.13;9.23;;;16.70;99.90;;;;;;5064487;28;20174;-71
2023/08/06 02:38:14;;;;;;;8.83;8.00;;;16.70;99.90;;;;;;5073919;28;20171;-70
2023/08/06 02:40:46;;;;;;;9.07;8.13;;;16.60;99.90;;;;;;5073878;28;20249;-71
2023/08/06 02:43:12;;;;;;;10.10;9.17;;;16.60;99.90;;;;;;5067339;28;20228;-70
2023/08/06 02:45:38;;;;;;;9.50;8.60;;;16.60;99.90;;;;;;5067271;28;20471;-71
2023/08/06 02:48:04;;;;;;;9.73;8.73;;;16.60;99.90;;;;;;5052222;28;20459;-71
2023/08/06 02:50:30;;;;;;;9.70;8.53;;;16.60;99.90;;;;;;5053743;28;20181;-70
2023/08/06 02:52:55;;;;;;;10.37;9.47;;;16.60;99.90;;;;;;5065675;28;20468;-72
2023/08/06 02:55:21;;;;;;;10.20;9.30;;;16.60;99.90;;;;;;5074155;28;20181;-70
2023/08/06 02:57:47;;;;;;;10.90;9.90;;;16.60;99.90;;;;;;5093500;28;20177;-71
2023/08/06 03:00:12;;;;;;;10.77;9.77;;;16.50;99.90;;;;;;5063809;28;20388;-70
2023/08/06 03:02:38;;;;;;;10.73;9.73;;;16.50;99.90;;;;;;5054039;28;20672;-71
2023/08/06 03:05:06;;;;;;;10.10;9.20;;;16.50;99.90;;;;;;5053381;28;20165;-70
2023/08/06 03:07:33;;;;;;;10.37;9.40;;;16.50;99.90;;;;;;5053246;28;20204;-71
2023/08/06 03:10:00;;;;;;;11.17;10.07;;;16.50;99.90;;;;;;5035489;28;20470;-71
2023/08/06 03:12:26;;;;;;;10.30;9.40;;;16.50;99.90;;;;;;5052773;28;20460;-71
2023/08/06 03:14:51;;;;;;;11.30;10.10;;;16.50;99.90;;;;;;5052183;28;20443;-71
2023/08/06 03:17:17;;;;;;;10.10;8.73;;;16.40;99.90;;;;;;5052957;28;20164;-70
2023/08/06 03:19:43;;;;;;;9.03;8.23;;;16.40;99.90;;;;;;5052951;28;20195;-70
2023/08/06 03:22:08;;;;;;;9.03;8.27;;;16.30;99.90;;;;;;5052806;28;20186;-70
2023/08/06 03:24:34;;;;;;;8.30;7.50;;;16.20;99.90;;;;;;5052874;28;20200;-70
2023/08/06 03:26:59;;;;;;;8.27;7.50;;;16.20;99.90;;;;;;5052802;28;20591;-70
2023/08/06 03:29:25;;;;;;;9.17;8.37;;;16.20;99.90;;;;;;5053442;28;20206;-70
2023/08/06 03:31:52;;;;;;;9.60;8.70;;;16.10;99.90;;;;;;5065261;28;20595;-71
2023/08/06 03:34:17;;;;;;;8.23;7.50;;;16.00;99.90;;;;;;5072571;28;20187;-73
2023/08/06 03:36:43;;;;;;;9.53;8.67;;;16.00;99.90;;;;;;5072596;28;20403;-71
2023/08/06 03:39:08;;;;;;;10.20;8.63;;;16.00;99.90;;;;;;5054621;28;20168;-71
2023/08/06 03:41:34;;;;;;;10.50;8.37;;;16.00;99.90;;;;;;5073888;28;20657;-72
2023/08/06 03:44:02;;;;;;;9.70;8.13;;;16.00;99.90;;;;;;5074777;28;20223;-72
2023/08/06 03:46:28;;;;;;;10.40;9.50;;;16.00;99.90;;;;;;5079344;28;20206;-72
2023/08/06 03:48:53;;;;;;;10.60;9.50;;;16.00;99.90;;;;;;5078057;28;20471;-70
2023/08/06 03:51:19;;;;;;;11.20;10.10;;;16.00;99.90;;;;;;5072532;28;20198;-71
2023/08/06 03:53:45;;;;;;;9.70;8.70;;;16.00;99.90;;;;;;5072226;28;20197;-71
2023/08/06 03:56:10;;;;;;;9.87;9.07;;;16.00;99.90;;;;;;5072149;28;20166;-71
2023/08/06 03:58:36;;;;;;;9.20;8.40;;;16.00;99.90;;;;;;5071918;28;20173;-71
2023/08/06 04:01:02;;;;;;;10.40;9.40;;;16.00;99.90;;;;;;5072419;28;20668;-70
2023/08/06 04:03:28;;;;;;;11.10;9.17;;;16.00;99.90;;;;;;5061528;28;20252;-70
2023/08/06 04:05:54;;;;;;;9.20;8.33;;;16.00;99.90;;;;;;5053010;28;20439;-72
2023/08/06 04:08:20;;;;;;;10.50;9.50;;;16.00;99.90;;;;;;5052425;28;20640;-70
2023/08/06 04:10:45;;;;;;;12.10;10.40;;;16.00;99.90;;;;;;5052434;28;20580;-71
2023/08/06 04:13:11;;;;;;;9.40;8.50;;;16.00;99.90;;;;;;5052606;28;20200;-72
2023/08/06 04:15:36;;;;;;;9.30;8.33;;;16.00;99.90;;;;;;5052838;28;20198;-71
2023/08/06 04:18:02;;;;;;;9.87;8.97;;;16.00;99.90;;;;;;5051750;28;20184;-71
2023/08/06 04:20:27;;;;;;;9.23;8.33;;;16.00;99.90;;;;;;5052286;28;20178;-72
2023/08/06 04:22:56;;;;;;;12.20;9.30;;;16.00;99.90;;;;;;5052507;28;20556;-71
2023/08/06 04:25:23;;;;;;;11.77;10.70;;;16.10;99.90;;;;;;5052700;28;20173;-72
2023/08/06 04:27:48;;;;;;;10.23;9.23;;;16.00;99.90;;;;;;5052363;28;20995;-72
2023/08/06 04:30:14;;;;;;;9.20;8.30;;;16.00;99.90;;;;;;5052110;28;20411;-72
2023/08/06 04:32:40;;;;;;;9.90;8.17;;;16.00;99.90;;;;;;5052320;28;20727;-72
2023/08/06 04:35:06;;;;;;;8.37;7.60;;;16.00;99.90;;;;;;5051171;28;20184;-71
2023/08/06 04:37:32;;;;;;;9.67;8.67;;;16.00;99.90;;;;;;5052754;28;20399;-72
2023/08/06 04:39:57;;;;;;;9.53;8.33;;;16.00;99.90;;;;;;5051974;28;20405;-71
2023/08/06 04:42:23;;;;;;;9.50;8.70;;;16.00;99.90;;;;;;5034645;28;20188;-72
2023/08/06 04:44:49;;;;;;;9.03;8.17;;;16.00;99.90;;;;;;5052670;28;20200;-71
2023/08/06 04:47:15;;;;;;;8.93;8.07;;;16.00;99.90;;;;;;5053276;28;20644;-72
2023/08/06 04:49:40;;;;;;;9.80;8.63;;;16.00;99.90;;;;;;5034836;28;20459;-72
2023/08/06 04:52:06;;;;;;;9.30;8.40;;;16.00;99.90;;;;;;5052319;28;20206;-72
2023/08/06 04:54:31;;;;;;;8.80;7.97;;;16.10;99.90;;;;;;5052495;28;20614;-71
2023/08/06 04:56:57;;;;;;;8.27;7.47;;;16.10;99.90;;;;;;5056232;28;20242;-71
2023/08/06 04:59:23;;;;;;;8.17;7.47;;;16.10;99.90;;;;;;5056706;28;20583;-71
2023/08/06 05:01:48;;;;;;;7.73;7.13;;;16.10;99.90;;;;;;5057139;28;20689;-71
2023/08/06 05:04:14;;;;;;;7.67;6.97;;;16.10;99.90;;;;;;5056984;28;20274;-73
2023/08/06 05:06:40;;;;;;;6.50;5.97;;;16.10;99.90;;;;;;5055673;28;20188;-71
2023/08/06 05:09:06;;;;;;;7.33;6.77;;;16.10;99.90;;;;;;5055426;28;20585;-71
2023/08/06 05:11:32;;;;;;;8.00;7.30;;;16.20;99.90;;;;;;5055671;28;20447;-71
2023/08/06 05:13:57;;;;;;;7.90;7.20;;;16.20;99.90;;;;;;5055984;28;20631;-72
2023/08/06 05:16:23;;;;;;;7.63;7.00;;;16.10;99.90;;;;;;5055853;28;20937;-72
2023/08/06 05:18:49;;;;;;;7.07;6.40;;;16.20;99.90;;;;;;5056227;28;20177;-71
2023/08/06 05:21:16;;;;;;;8.40;7.50;;;16.20;99.90;;;;;;5056101;28;20406;-71
2023/08/06 05:23:42;;;;;;;7.40;6.70;;;16.30;99.90;;;;;;5056784;28;20208;-71
2023/08/06 05:26:07;;;;;;;6.60;6.00;;;16.30;99.90;;;;;;5059702;28;20910;-73
2023/08/06 05:28:34;;;;;;;6.47;5.97;;;16.30;99.90;;;;;;5055294;28;20446;-72
2023/08/06 05:31:06;;;;;;;8.30;6.97;;;16.30;99.90;;;;;;5055222;28;20197;-71
2023/08/06 05:33:31;;;;;;;7.00;6.27;;;16.30;99.90;;;;;;5055359;28;20427;-72
2023/08/06 05:35:57;;;;;;;6.87;6.33;;;16.30;99.90;;;;;;5055160;28;20902;-72
2023/08/06 05:38:23;;;;;;;7.90;6.20;;;16.30;99.90;;;;;;5053597;28;20184;-71
2023/08/06 05:40:49;;;;;;;6.80;6.10;;;16.40;99.90;;;;;;5055575;28;20175;-72
2023/08/06 05:43:14;;;;;;;6.67;6.17;;;16.40;99.90;;;;;;5054667;28;20222;-71
2023/08/06 05:45:45;;;;;;;7.23;6.50;;;16.50;99.90;;;;;;5055496;28;20169;-72
2023/08/06 05:48:10;;;;;;;6.67;6.17;;;16.60;99.90;;;;;;5056448;28;20179;-71
2023/08/06 05:50:36;;;;;;;7.33;6.33;;;16.60;99.90;;;;;;5056416;28;20408;-72
2023/08/06 05:53:01;;;;;;;7.23;6.57;;;16.60;99.90;;;;;;5054721;28;20218;-72
2023/08/06 05:55:27;;;;;;;6.90;6.20;;;16.70;99.90;;;;;;5055439;28;20179;-71
2023/08/06 05:57:53;;;;;;;7.00;6.30;;;16.70;99.90;;;;;;5054746;28;20167;-71
2023/08/06 06:00:19;;;;;;;6.93;6.33;;;16.80;99.90;;;;;;5053880;28;20182;-72
2023/08/06 06:02:45;;;;;;;7.00;6.30;;;16.70;99.90;;;;;;5055301;28;20763;-72
2023/08/06 06:05:11;;;;;;;7.53;6.27;;;16.70;99.90;;;;;;5067929;28;20439;-73
2023/08/06 06:07:36;;;;;;;7.23;5.93;;;16.70;99.90;;;;;;5074739;28;20411;-72
2023/08/06 06:10:02;;;;;;;7.33;6.40;;;16.60;99.90;;;;;;5075568;28;20578;-72
2023/08/06 06:12:28;;;;;;;7.03;6.50;;;16.70;99.90;;;;;;5075791;28;20208;-71
2023/08/06 06:14:54;;;;;;;7.00;6.40;;;16.70;99.90;;;;;;5024606;28;20416;-72
2023/08/06 06:17:20;;;;;;;8.10;7.43;;;16.80;99.90;;;;;;5075503;28;20414;-69
2023/08/06 06:19:46;;;;;;;6.50;5.90;;;16.90;99.90;;;;;;5075550;28;20174;-71
2023/08/06 06:22:12;;;;;;;6.93;6.33;;;16.90;99.90;;;;;;5063746;28;20552;-69
2023/08/06 06:24:37;;;;;;;7.90;7.20;;;16.90;99.90;;;;;;5054373;28;20432;-70
2023/08/06 06:27:03;;;;;;;7.83;7.03;;;16.80;99.90;;;;;;5054243;28;20265;-71
2023/08/06 06:29:29;;;;;;;7.00;6.40;;;16.80;99.90;;;;;;5054090;28;20186;-70
2023/08/06 06:31:55;;;;;;;6.60;6.00;;;16.80;99.90;;;;;;5053923;28;20822;-70
2023/08/06 06:34:20;;;;;;;6.40;5.80;;;16.90;99.90;;;;;;5059513;28;20247;-69
2023/08/06 06:36:46;;;;;;;6.93;6.33;;;16.90;99.90;;;;;;5074340;28;20231;-70
2023/08/06 06:39:12;;;;;;;7.03;6.43;;;16.90;99.90;;;;;;5074547;28;20174;-71
2023/08/06 06:41:37;;;;;;;7.00;6.40;;;16.90;99.90;;;;;;5073743;28;20174;-71
2023/08/06 06:44:03;;;;;;;6.97;6.27;;;16.90;99.90;;;;;;5073774;28;20244;-70
2023/08/06 06:46:29;;;;;;;7.80;7.20;;;16.90;99.90;;;;;;5073657;28;20226;-71
2023/08/06 06:48:54;;;;;;;7.20;6.60;;;16.90;99.90;;;;;;5073470;28;20649;-71
2023/08/06 06:51:20;;;;;;;6.57;5.87;;;17.10;99.90;;;;;;5062442;28;20183;-71
2023/08/06 06:53:45;;;;;;;7.60;6.63;;;17.10;99.90;;;;;;5035795;28;20192;-71
2023/08/06 06:56:11;;;;;;;8.07;7.27;;;17.10;99.90;;;;;;5055931;28;20214;-71
2023/08/06 06:58:38;;;;;;;7.77;6.87;;;17.10;99.90;;;;;;5060780;28;20728;-71
2023/08/06 07:01:04;;;;;;;7.30;6.60;;;17.10;99.90;;;;;;5060257;28;20168;-72
2023/08/06 07:03:29;;;;;;;7.97;7.30;;;17.30;99.90;;;;;;5058813;28;20531;-70
2023/08/06 07:05:59;;;;;;;9.53;8.13;;;17.30;99.90;;;;;;5054070;28;20535;-70
2023/08/06 07:08:25;;;;;;;8.00;7.23;;;17.40;99.90;;;;;;5035123;28;20261;-70
2023/08/06 07:10:50;;;;;;;9.13;8.27;;;17.50;99.90;;;;;;5053695;28;20419;-70
2023/08/06 07:13:16;;;;;;;7.53;6.87;;;17.40;99.90;;;;;;5054235;28;20437;-70
2023/08/06 07:15:44;;;;;;;8.80;8.00;;;17.50;99.90;;;;;;5058313;28;20533;-71
2023/08/06 07:18:10;;;;;;;8.37;7.57;;;17.60;99.90;;;;;;5052065;28;20177;-70
2023/08/06 07:20:35;;;;;;;8.00;7.30;;;17.80;99.90;;;;;;5073084;28;20402;-70
2023/08/06 07:23:01;;;;;;;8.13;7.43;;;17.70;99.90;;;;;;5072935;28;20190;-71
2023/08/06 07:25:27;;;;;;;8.10;7.40;;;17.60;99.90;;;;;;5073644;28;20628;-69
2023/08/06 07:27:53;;;;;;;10.70;7.93;;;17.70;99.90;;;;;;5072639;28;20398;-70
2023/08/06 07:30:18;;;;;;;8.23;7.53;;;17.70;99.90;;;;;;5072850;28;20206;-70
2023/08/06 07:32:44;;;;;;;8.90;7.37;;;17.70;99.90;;;;;;5070059;28;20307;-70
2023/08/06 07:35:12;;;;;;;7.70;6.97;;;17.80;99.90;;;;;;5068810;28;20220;-71
2023/08/06 07:37:39;;;;;;;7.30;6.63;;;17.80;99.90;;;;;;5072933;28;20261;-70
2023/08/06 07:40:06;;;;;;;7.57;6.87;;;17.90;99.90;;;;;;5073063;28;20798;-70
2023/08/06 07:42:32;;;;;;;7.43;6.73;;;17.90;99.90;;;;;;5058816;28;20422;-70
2023/08/06 07:44:58;;;;;;;7.83;7.13;;;17.90;99.90;;;;;;5053033;28;20929;-72
2023/08/06 07:47:24;;;;;;;7.07;6.47;;;17.90;99.90;;;;;;5053040;28;20196;-71
2023/08/06 07:49:50;;;;;;;8.77;8.07;;;17.90;99.90;;;;;;5056853;28;20433;-72
2023/08/06 07:52:16;;;;;;;6.43;5.93;;;17.90;99.90;;;;;;5050206;28;20200;-75
2023/08/06 07:54:41;;;;;;;7.77;7.07;;;18.00;99.90;;;;;;5057774;28;20431;-76
2023/08/06 07:57:07;;;;;;;8.20;7.40;;;18.10;99.90;;;;;;5059056;28;20576;-72
2023/08/06 07:59:36;;;;;;;9.03;8.23;;;18.00;99.90;;;;;;5057151;28;20164;-72
2023/08/06 08:02:02;;;;;;;8.57;7.87;;;18.00;99.90;;;;;;5038370;28;20631;-72
2023/08/06 08:04:27;;;;;;;7.60;6.73;;;18.10;99.90;;;;;;5055199;28;20492;-72
2023/08/06 08:06:53;;;;;;;7.67;7.07;;;18.00;99.90;;;;;;5061288;28;20654;-70
2023/08/06 08:09:19;;;;;;;8.73;8.00;;;18.00;99.90;;;;;;5070372;28;20634;-70
2023/08/06 08:11:44;;;;;;;9.33;8.43;;;18.00;99.90;;;;;;5065806;28;20207;-70
2023/08/06 08:14:10;;;;;;;8.33;7.70;;;18.10;99.90;;;;;;5073424;28;20674;-70
2023/08/06 08:16:35;;;;;;;8.23;7.53;;;18.00;99.90;;;;;;5073863;28;20172;-70
2023/08/06 08:19:03;;;;;;;8.10;7.40;;;18.00;99.90;;;;;;5054908;28;20175;-70
2023/08/06 08:21:28;;;;;;;8.03;7.43;;;17.90;99.90;;;;;;5072714;28;20183;-70
2023/08/06 08:23:54;;;;;;;7.40;6.57;;;18.00;99.90;;;;;;5066508;28;20430;-70
2023/08/06 08:26:19;;;;;;;8.33;7.63;;;18.00;99.90;;;;;;5071946;28;20255;-70
2023/08/06 08:28:45;;;;;;;8.40;7.60;;;18.10;99.90;;;;;;5071868;28;20207;-70
2023/08/06 08:31:12;;;;;;;9.00;7.40;;;18.10;99.90;;;;;;5071830;28;20716;-70
2023/08/06 08:33:40;;;;;;;8.50;7.80;;;18.20;99.90;;;;;;5072286;28;20196;-71
2023/08/06 08:36:06;;;;;;;9.47;8.67;;;18.20;99.90;;;;;;5072227;28;20403;-70
2023/08/06 08:38:31;;;;;;;10.20;9.30;;;18.30;99.90;;;;;;5071768;28;20484;-72
2023/08/06 08:40:57;;;;;;;8.80;8.07;;;18.40;99.90;;;;;;5069545;28;20180;-71
2023/08/06 08:43:23;;;;;;;9.00;8.20;;;18.50;99.90;;;;;;5061417;28;20298;-69
2023/08/06 08:45:55;;;;;;;9.40;8.60;;;18.50;99.90;;;;;;5071609;28;20171;-73
2023/08/06 08:48:22;;;;;;;9.03;8.23;;;18.60;99.90;;;;;;5053222;28;20423;-69
2023/08/06 08:50:49;;;;;;;17.50;12.90;;;18.40;99.90;;;;;;5071849;28;20771;-76
2023/08/06 08:53:16;;;;;;;9.93;8.93;;;18.50;99.90;;;;;;5072378;28;20450;-73
2023/08/06 08:55:43;;;;;;;10.33;9.30;;;18.60;99.90;;;;;;5071797;28;20436;-70
2023/08/06 08:58:10;;;;;;;9.40;8.50;;;18.70;99.90;;;;;;5072158;28;20409;-71
2023/08/06 09:00:36;;;;;;;10.20;9.30;;;18.60;99.90;;;;;;5064626;28;21243;-71
2023/08/06 09:03:05;;;;;;;8.47;7.77;;;18.50;99.90;;;;;;5065205;28;20213;-72
2023/08/06 09:05:32;;;;;;;8.87;8.07;;;18.30;99.90;;;;;;5062358;28;20176;-72
2023/08/06 09:08:03;;;;;;;9.90;9.10;;;18.30;99.90;;;;;;5072207;28;20405;-72
2023/08/06 09:10:28;;;;;;;11.03;10.03;;;18.50;99.90;;;;;;5053780;28;20423;-72
2023/08/06 09:12:56;;;;;;;9.80;9.00;;;18.50;99.90;;;;;;5052005;28;20768;-71
2023/08/06 09:15:25;;;;;;;11.37;10.37;;;18.30;99.90;;;;;;5051285;28;20168;-71
2023/08/06 09:17:52;;;;;;;9.80;8.80;;;18.20;99.90;;;;;;5064127;28;20458;-71
2023/08/06 09:20:17;;;;;;;11.63;10.27;;;18.30;99.90;;;;;;5071711;28;20418;-72
2023/08/06 09:22:44;;;;;;;10.80;9.80;;;18.40;99.90;;;;;;5070834;28;20438;-72
2023/08/06 09:25:10;;;;;;;10.00;9.20;;;18.20;99.90;;;;;;5071705;28;20164;-72
2023/08/06 09:27:38;;;;;;;10.90;9.97;;;18.30;99.90;;;;;;5071608;28;20414;-73
2023/08/06 09:30:06;;;;;;;10.30;9.50;;;18.60;99.90;;;;;;5071360;28;20174;-72
2023/08/06 09:32:51;;;;;;;10.80;9.80;;;18.70;99.90;;;;;;5059004;28;20563;-73
2023/08/06 09:35:18;;;;;;;12.20;11.10;;;18.80;99.90;;;;;;5068088;28;20779;-70
2023/08/06 09:37:44;;;;;;;10.60;9.70;;;18.80;99.90;;;;;;5068126;28;20410;-70
2023/08/06 09:40:39;;;;;;;11.27;10.13;;;18.90;99.90;;;;;;5071507;28;20417;-70
2023/08/06 09:43:05;;;;;;;11.30;10.20;;;18.90;99.90;;;;;;5038670;28;20597;-70
2023/08/06 09:45:36;;;;;;;11.23;10.13;;;18.90;99.90;;;;;;5056153;28;20443;-70
2023/08/06 09:48:06;;;;;;;11.07;10.00;;;18.80;99.90;;;;;;5055754;28;20402;-71
2023/08/06 09:50:36;;;;;;;10.50;9.60;;;18.80;99.90;;;;;;5045434;28;20416;-70
2023/08/06 09:53:03;;;;;;;10.43;9.47;;;19.00;99.90;;;;;;5075878;28;20463;-70
2023/08/06 09:55:29;;;;;;;11.80;10.60;;;18.90;99.90;;;;;;5075739;28;20408;-70
2023/08/06 09:57:55;;;;;;;11.03;10.13;;;19.00;99.90;;;;;;5075653;28;20927;-70
2023/08/06 10:00:22;;;;;;;11.30;10.30;;;18.70;99.90;;;;;;5072237;28;20993;-70
2023/08/06 10:02:49;;;;;;;10.43;9.43;;;18.50;99.90;;;;;;5054343;28;20478;-70
2023/08/06 10:05:15;;;;;;;11.73;10.73;;;18.80;99.90;;;;;;5054911;28;20400;-70
2023/08/06 10:07:44;;;;;;;9.83;9.03;;;18.70;99.90;;;;;;5057834;28;20498;-70
2023/08/06 10:10:10;;;;;;;10.57;9.67;;;18.80;99.90;;;;;;5077053;28;20438;-69
2023/08/06 10:13:03;;;;;;;10.07;8.17;;;18.60;99.90;;;;;;5079853;28;20467;-71
2023/08/06 10:15:31;;;;;;;7.53;6.70;;;18.40;99.90;;;;;;5079683;28;20181;-71
2023/08/06 10:17:59;;;;;;;6.87;6.23;;;18.60;99.90;;;;;;5083284;28;20406;-70
2023/08/06 10:20:25;;;;;;;6.83;6.30;;;18.80;99.90;;;;;;5063529;28;20411;-70
2023/08/06 10:23:05;;;;;;;6.90;6.20;;;18.90;99.90;;;;;;5075228;28;20499;-70
2023/08/06 10:25:35;;;;;;;7.50;7.00;;;19.10;99.90;;;;;;5082102;28;20190;-71
2023/08/06 10:28:08;;;;;;;7.03;5.73;;;19.10;99.90;;;;;;5077833;28;20779;-71
2023/08/06 10:30:34;;;;;;;6.57;6.07;;;19.20;99.90;;;;;;5075328;28;20778;-70
2023/08/06 10:33:01;;;;;;;5.10;4.70;;;19.00;99.90;;;;;;5056681;28;20471;-70
2023/08/06 10:35:34;;;;;;;4.70;4.27;;;18.70;99.90;;;;;;5054168;28;20195;-70
2023/08/06 10:38:07;;;;;;;4.80;4.40;;;18.80;99.90;;;;;;5053869;28;20822;-70
2023/08/06 10:40:33;;;;;;;4.27;3.97;;;18.90;99.90;;;;;;5054094;28;20439;-70
2023/08/06 10:43:00;;;;;;;4.27;3.87;;;18.70;99.90;;;;;;5069372;28;21007;-69
2023/08/06 10:45:28;;;;;;;4.53;4.23;;;18.80;99.90;;;;;;5074559;28;20473;-70
2023/08/06 10:47:56;;;;;;;4.77;4.37;;;18.90;99.90;;;;;;5070317;28;20418;-69
2023/08/06 10:50:21;;;;;;;5.37;4.20;;;18.90;99.90;;;;;;5074874;28;20418;-70
2023/08/06 10:52:47;;;;;;;5.37;4.87;;;18.90;99.90;;;;;;5056922;28;20470;-70
2023/08/06 10:55:23;;;;;;;5.20;4.80;;;18.90;99.90;;;;;;5056422;28;20180;-71
2023/08/06 10:57:49;;;;;;;5.30;4.80;;;18.90;99.90;;;;;;5056237;28;20915;-72
2023/08/06 11:00:15;;;;;;;6.23;5.37;;;18.90;99.90;;;;;;5081045;28;20421;-69
2023/08/06 11:02:41;;;;;;;5.63;5.13;;;18.70;99.90;;;;;;5093957;28;20205;-70
2023/08/06 11:05:11;;;;;;;5.03;4.63;;;19.00;99.90;;;;;;5094955;28;20177;-69
2023/08/06 11:07:37;;;;;;;5.97;4.70;;;19.10;99.90;;;;;;5094679;28;20511;-68
2023/08/06 11:10:04;;;;;;;5.17;4.77;;;19.20;99.90;;;;;;5094735;28;20417;-71
2023/08/06 11:12:31;;;;;;;5.63;5.20;;;19.10;99.90;;;;;;5093885;28;20488;-73
2023/08/06 11:14:57;;;;;;;5.77;5.17;;;19.20;99.90;;;;;;5093742;28;20425;-70
2023/08/06 11:17:23;;;;;;;7.30;5.10;;;19.10;99.90;;;;;;5076118;28;20413;-71
2023/08/06 11:19:49;;;;;;;6.43;5.90;;;19.10;99.90;;;;;;5073651;28;20400;-70
2023/08/06 11:22:15;;;;;;;6.70;6.03;;;18.90;99.90;;;;;;5073743;28;20212;-70
2023/08/06 11:24:40;;;;;;;6.63;5.97;;;18.90;99.90;;;;;;5074192;28;20178;-71
2023/08/06 11:27:16;;;;;;;6.40;5.90;;;18.80;99.90;;;;;;5074441;28;20405;-72
2023/08/06 11:29:43;;;;;;;6.80;6.20;;;18.90;99.90;;;;;;5058436;28;20887;-70
2023/08/06 11:32:09;;;;;;;6.40;5.77;;;18.80;99.90;;;;;;5053113;28;20546;-71
2023/08/06 11:34:35;;;;;;;6.17;5.57;;;18.90;99.90;;;;;;5071402;28;20523;-70
2023/08/06 11:37:02;;;;;;;5.87;5.37;;;19.20;99.90;;;;;;5073034;28;20844;-71
2023/08/06 11:39:28;;;;;;;6.30;5.33;;;19.20;99.90;;;;;;5072747;28;20410;-69
2023/08/06 11:41:53;;;;;;;6.27;5.67;;;19.10;99.90;;;;;;5072797;28;20501;-68
2023/08/06 11:44:20;;;;;;;6.00;5.50;;;19.00;99.90;;;;;;5072805;28;20286;-69
2023/08/06 11:47:01;;;;;;;5.83;5.20;;;19.10;99.90;;;;;;5070646;28;20177;-69
2023/08/06 11:49:45;;;;;;;6.40;5.90;;;19.20;99.90;;;;;;5072632;28;20419;-70
2023/08/06 11:52:22;;;;;;;6.53;5.70;;;19.20;99.90;;;;;;5072821;28;20576;-69
2023/08/06 11:55:03;;;;;;;6.03;5.43;;;18.90;99.90;;;;;;5072754;28;20414;-68
2023/08/06 11:57:35;;;;;;;6.53;5.80;;;18.60;99.90;;;;;;5073518;28;20418;-69
2023/08/06 12:00:11;;;;;;;6.67;6.17;;;18.80;99.90;;;;;;5077726;28;20404;-70
2023/08/06 12:02:41;;;;;;;6.47;5.97;;;19.10;99.90;;;;;;5093222;28;20438;-69
2023/08/06 12:05:17;;;;;;;7.60;6.90;;;19.40;99.90;;;;;;5093825;28;20883;-70
2023/08/06 12:07:50;;;;;;;6.67;6.10;;;19.50;99.90;;;;;;5080781;28;20453;-69
2023/08/06 12:10:17;;;;;;;5.97;5.47;;;19.50;99.90;;;;;;5072497;28;20496;-69
2023/08/06 12:12:42;;;;;;;6.33;5.63;;;19.30;99.90;;;;;;5072175;28;20456;-70
2023/08/06 12:15:09;;;;;;;6.77;6.23;;;19.60;99.90;;;;;;5072448;28;20412;-69
2023/08/06 12:17:36;;;;;;;8.07;7.27;;;19.60;99.90;;;;;;5072581;28;20175;-69
2023/08/06 12:20:04;;;;;;;7.83;7.13;;;19.50;99.90;;;;;;5072743;28;20445;-69
2023/08/06 12:22:34;;;;;;;8.23;7.33;;;19.10;99.90;;;;;;5072938;28;20409;-70
2023/08/06 12:25:00;;;;;;;7.90;7.10;;;19.20;99.90;;;;;;5072087;28;20508;-70
2023/08/06 12:27:26;;;;;;;9.07;8.27;;;19.50;99.90;;;;;;5072728;28;20416;-70
2023/08/06 12:29:52;;;;;;;8.83;8.03;;;19.30;99.90;;;;;;5072638;28;20491;-70
2023/08/06 12:32:19;;;;;;;7.77;7.07;;;19.20;99.90;;;;;;5073177;28;20201;-70
2023/08/06 12:34:44;;;;;;;8.37;7.67;;;19.20;99.90;;;;;;5062137;28;20197;-70
2023/08/06 12:37:10;;;;;;;8.73;7.80;;;19.10;99.90;;;;;;5053038;28;20417;-70
2023/08/06 12:39:36;;;;;;;9.43;8.53;;;19.00;99.90;;;;;;5070811;28;20265;-71
2023/08/06 12:42:03;;;;;;;7.90;7.20;;;19.00;99.90;;;;;;5064270;28;20193;-69
2023/08/06 12:44:29;;;;;;;8.70;7.90;;;19.10;99.90;;;;;;5069143;28;20525;-70